Latest Weather Observations for Armidale Airport

IDN60801

Issued at 7:35 pm EDT Thursday 23 October 2014 (issued every 30 minutes, with the page automatically refreshed every 10 minutes)

About weather observations | Map of weather stations | Latest weather observations for NSW | Other Formats
Station Details ID: 056238 Name: ARMIDALE AIRPORT AWS Lat: -30.53 Lon: 151.62 Height: 1079.0 m
Data from the previous 72 hours. | See also: Recent months for locations in New South Wales
Date/Time
EDT
Temp
°C
App
Temp
°C
Dew
Point
Rel
Hum
%
Delta-T
°C
Wind Press
QNH
hPa
Press
MSL
hPa
Rain
since 9 am
mm
Dir
 
Spd
km/h
Gust
km/h
Spd
kts
Gust
kts
23/07:30pm 16.4 15.8 8.9 61 4.1 NNE 2 6 1 3 1022.6 1019.5 0.0
23/07:00pm 16.8 14.6 9.2 61 4.2 N 11 13 6 7 1021.9 1018.9 0.0
23/06:30pm 17.5 14.5 7.8 53 5.2 NE 13 17 7 9 1022.0 1019.0 0.0
23/06:00pm 17.8 13.8 9.2 57 4.7 ENE 20 30 11 16 1021.7 1018.6 0.0
23/05:30pm 17.1 13.8 10.9 67 3.5 ENE 19 26 10 14 1022.1 1019.1 0.0
23/05:00pm 18.3 14.6 10.2 59 4.5 ENE 20 26 11 14 1022.0 1019.0 0.0
23/04:30pm 16.9 11.4 9.1 60 4.3 NE 28 33 15 18 1021.7 1018.6 0.0
23/04:05pm 18.2 11.4 7.9 51 5.5 E 33 52 18 28 1021.3 1018.2 0.0
23/04:00pm 18.9 12.8 8.3 50 5.8 E 30 44 16 24 1021.4 1018.3 0.0
23/03:54pm 19.4 13.6 7.8 47 6.3 ESE 28 44 15 24 1021.1 1018.1 0.0
23/03:30pm 24.6 18.5 6.8 32 9.7 SW 28 39 15 21 1020.6 1017.5 0.0
23/03:08pm 24.5 17.8 5.8 30 10.0 SW 30 48 16 26 1020.4 1017.3 0.0
23/03:00pm 23.3 17.2 6.6 34 9.0 SW 28 37 15 20 1020.5 1017.4 0.0
23/02:30pm 24.6 19.4 9.0 37 8.9 W 26 33 14 18 1020.7 1017.6 0.0
23/02:00pm 24.4 19.5 8.4 36 9.0 WSW 24 41 13 22 1020.9 1017.8 0.0
23/01:30pm 23.5 18.9 8.0 37 8.6 WSW 22 35 12 19 1021.5 1018.4 0.0
23/01:00pm 23.4 18.9 10.1 43 7.6 WSW 24 35 13 19 1022.1 1019.1 0.0
23/12:30pm 22.4 16.5 8.9 42 7.6 WSW 30 33 16 18 1022.8 1019.8 0.0
23/12:00pm 21.7 16.1 8.6 43 7.3 WSW 28 37 15 20 1023.1 1020.1 0.0
23/11:30am 21.8 17.2 9.7 46 6.9 W 24 35 13 19 1023.4 1020.3 0.0
23/11:00am 21.1 16.8 9.4 47 6.6 W 22 28 12 15 1023.6 1020.6 0.0
23/10:30am 20.2 15.9 9.5 50 6.0 W 22 32 12 17 1023.8 1020.8 0.0
23/10:00am 19.6 15.8 9.2 51 5.8 WNW 19 26 10 14 1023.8 1020.8 0.0
23/09:30am 18.6 14.7 8.6 52 5.5 W 19 22 10 12 1023.9 1020.9 0.0
23/09:00am 17.5 13.3 8.1 54 5.0 W 20 26 11 14 1024.0 1021.0 0.0
23/08:30am 16.5 11.9 8.2 58 4.5 WNW 22 30 12 16 1023.9 1020.9 0.0
23/08:00am 15.1 10.4 7.9 62 3.8 W 22 30 12 16 1023.7 1020.7 0.0
23/07:30am 13.4 10.2 8.5 72 2.6 WNW 15 20 8 11 1023.5 1020.4 0.0
23/07:00am 11.6 8.2 7.7 77 2.0 W 15 17 8 9 1023.4 1020.3 0.0
23/06:30am 9.4 5.7 6.5 82 1.4 W 15 17 8 9 1023.2 1020.2 0.0
23/06:00am 8.9 5.2 6.2 83 1.3 W 15 17 8 9 1022.9 1019.9 0.0
23/05:30am 8.3 4.4 5.4 82 1.4 W 15 15 8 8 1022.8 1019.8 0.0
23/05:00am 8.6 5.0 5.2 79 1.6 W 13 15 7 8 1022.6 1019.5 0.0
23/04:30am 9.9 6.1 5.9 76 2.0 W 15 19 8 10 1022.5 1019.4 0.0
23/04:00am 9.4 5.8 5.2 75 2.0 W 13 13 7 7 1022.5 1019.4 0.0
23/03:30am 9.7 6.5 5.3 74 2.1 WNW 11 13 6 7 1022.6 1019.5 0.0
23/03:00am 10.3 7.2 5.5 72 2.3 WNW 11 15 6 8 1022.8 1019.8 0.0
23/02:30am 9.5 7.3 6.0 79 1.7 W 7 9 4 5 1022.9 1019.9 0.0
23/02:00am 8.2 7.1 5.3 82 1.4 CALM 0 0 0 0 1023.1 1020.1 0.0
23/01:30am 9.4 8.4 5.6 77 1.8 CALM 0 0 0 0 1023.4 1020.3 0.0
23/01:00am 9.7 8.7 5.5 75 2.0 CALM 0 0 0 0 1023.6 1020.6 0.0
23/12:30am 10.1 7.8 5.9 75 2.1 ENE 7 9 4 5 1023.7 1020.7 0.0
23/12:00am 10.5 7.8 5.5 71 2.4 E 9 11 5 6 1024.0 1021.0 0.0
 
Date/Time
EDT
Temp
°C
App
Temp
°C
Dew
Point
Rel
Hum
%
Delta-T
°C
Wind Press
QNH
hPa
Press
MSL
hPa
Rain
since 9 am
mm
Dir
 
Spd
km/h
Gust
km/h
Spd
kts
Gust
kts
22/11:30pm 10.9 8.6 5.9 71 2.5 E 7 9 4 5 1023.9 1020.9 0.0
22/11:00pm 9.8 6.8 5.8 76 1.9 ENE 11 11 6 6 1024.1 1021.1 0.0
22/10:30pm 10.8 7.9 6.6 75 2.1 ENE 11 11 6 6 1024.4 1021.4 0.0
22/10:00pm 11.1 8.2 6.3 72 2.4 ENE 11 13 6 7 1024.4 1021.4 0.0
22/09:30pm 13.4 9.9 7.4 67 3.1 E 15 15 8 8 1024.5 1021.5 0.0
22/09:00pm 14.7 11.2 7.3 61 3.8 E 15 19 8 10 1024.4 1021.4 0.0
22/08:30pm 14.4 11.5 6.3 58 4.1 E 11 13 6 7 1024.2 1021.2 0.0
22/08:00pm 15.2 12.7 4.9 50 5.1 SSE 7 15 4 8 1024.0 1021.0 0.0
22/07:30pm 15.8 12.9 4.5 47 5.6 WSW 9 11 5 6 1023.7 1020.7 0.0
22/07:00pm 17.2 13.5 4.2 42 6.5 WSW 13 15 7 8 1023.7 1020.7 0.0
22/06:30pm 19.9 15.7 3.6 34 8.2 SW 15 19 8 10 1023.6 1020.6 0.0
22/06:00pm 20.8 16.6 4.0 33 8.5 SSW 15 24 8 13 1023.5 1020.4 0.0
22/05:30pm 21.4 17.0 4.9 34 8.6 SW 17 26 9 14 1023.5 1020.4 0.0
22/05:00pm 21.7 17.0 2.9 29 9.4 SW 17 28 9 15 1023.4 1020.3 0.0
22/04:30pm 22.0 17.5 4.1 31 9.2 SSW 17 28 9 15 1023.4 1020.3 0.0
22/04:00pm 21.8 17.6 3.9 31 9.1 SW 15 24 8 13 1023.5 1020.4 0.0
22/03:30pm 21.9 16.6 3.1 29 9.5 SW 20 32 11 17 1023.7 1020.7 0.0
22/03:00pm 20.9 17.3 4.9 35 8.3 SSE 13 19 7 10 1024.1 1021.1 0.0
22/02:30pm 21.1 17.6 5.5 36 8.2 S 13 19 7 10 1024.5 1021.5 0.0
22/02:00pm 20.6 15.6 6.5 40 7.5 S 22 32 12 17 1024.9 1021.9 0.0
22/01:30pm 19.2 15.9 6.3 43 6.8 S 13 28 7 15 1025.5 1022.5 0.0
22/01:00pm 19.0 15.4 6.8 45 6.4 SSW 15 24 8 13 1026.0 1023.1 0.0
22/12:30pm 18.2 13.6 6.7 47 6.1 SSW 20 32 11 17 1026.5 1023.5 0.0
22/12:00pm 17.9 15.9 7.3 50 5.6 NNE 7 13 4 7 1026.9 1024.0 0.0
22/11:30am 16.6 14.8 7.8 56 4.7 SW 7 15 4 8 1027.1 1024.2 0.0
22/11:00am 15.0 12.6 7.1 59 4.1 ESE 9 19 5 10 1027.5 1024.5 0.0
22/10:30am 14.4 11.0 7.7 64 3.5 NE 15 20 8 11 1027.7 1024.8 0.0
22/10:00am 13.3 9.4 7.3 67 3.1 E 17 22 9 12 1027.7 1024.8 0.0
22/09:30am 12.5 8.1 7.4 71 2.6 E 20 26 11 14 1027.7 1024.8 0.0
22/09:00am 11.5 7.1 7.6 77 2.0 ENE 20 30 11 16 1027.6 1024.6 0.0
22/08:47am 10.8 5.6 7.1 78 1.9 E 24 30 13 16 1027.6 1024.6 0.0
22/08:30am 10.3 5.0 7.0 80 1.7 ENE 24 30 13 16 1027.5 1024.5 0.0
22/08:00am 8.9 3.4 7.4 90 0.8 ENE 26 32 14 17 1027.2 1024.3 0.0
22/07:30am 7.6 2.8 7.3 98 0.1 ENE 22 26 12 14 1027.2 1024.3 0.0
22/07:00am 6.9 2.3 6.6 98 0.1 ENE 20 24 11 13 1027.1 1024.2 0.0
22/06:44am 6.1 1.4 6.0 99 0.0 ENE 20 24 11 13 1027.1 1024.2 0.0
22/06:30am 5.4 1.1 5.1 98 0.1 ENE 17 20 9 11 1027.0 1024.1 0.0
22/06:22am 5.5 1.2 5.2 98 0.1 ENE 17 20 9 11 1027.0 1024.1 0.0
22/06:05am 5.8 1.2 5.5 98 0.1 ENE 19 22 10 12 1026.9 1024.0 0.0
22/06:00am 6.0 1.8 5.7 98 0.1 E 17 20 9 11 1026.9 1024.0 0.0
22/05:30am 6.2 1.5 5.9 98 0.1 E 20 22 11 12 1026.7 1023.7 0.0
22/05:00am 6.5 1.4 6.2 98 0.1 E 22 26 12 14 1026.7 1023.7 0.0
22/04:30am 6.7 1.9 5.8 94 0.4 E 20 26 11 14 1026.6 1023.6 0.0
22/04:00am 7.2 2.0 5.3 88 0.9 E 22 28 12 15 1026.7 1023.7 0.0
22/03:31am 7.7 2.1 5.5 86 1.1 E 24 32 13 17 1026.9 1024.0 0.0
22/03:30am 7.7 1.7 5.5 86 1.1 E 26 30 14 16 1026.9 1024.0 0.0
22/03:00am 8.3 2.8 5.9 85 1.2 E 24 33 13 18 1027.4 1024.4 0.0
22/02:30am 8.5 3.9 6.3 86 1.1 E 20 28 11 15 1027.7 1024.8 0.0
22/02:00am 8.7 4.1 6.5 86 1.1 E 20 28 11 15 1028.2 1025.3 0.0
22/01:30am 8.8 4.2 6.6 86 1.1 E 20 28 11 15 1028.6 1025.7 0.0
22/01:00am 8.8 4.2 6.4 85 1.2 E 20 28 11 15 1029.1 1026.2 0.0
22/12:30am 9.0 3.7 6.6 85 1.2 E 24 30 13 16 1029.6 1026.7 0.0
22/12:08am 8.9 3.9 6.5 85 1.2 E 22 30 12 16 1029.8 1026.9 0.0
22/12:00am 8.9 4.3 6.7 86 1.1 E 20 28 11 15 1029.9 1027.0 0.0
 
Date/Time
EDT
Temp
°C
App
Temp
°C
Dew
Point
Rel
Hum
%
Delta-T
°C
Wind Press
QNH
hPa
Press
MSL
hPa
Rain
since 9 am
mm
Dir
 
Spd
km/h
Gust
km/h
Spd
kts
Gust
kts
21/11:30pm 8.3 3.7 6.4 88 0.9 E 20 24 11 13 1030.0 1027.1 0.0
21/11:00pm 8.2 3.8 6.7 90 0.7 ENE 19 22 10 12 1030.0 1027.1 0.0
21/10:30pm 8.5 4.0 6.8 89 0.8 E 20 28 11 15 1030.1 1027.3 0.0
21/10:00pm 8.5 4.2 6.8 89 0.8 E 19 22 10 12 1030.1 1027.3 0.0
21/09:30pm 8.7 4.4 6.8 88 0.9 E 19 22 10 12 1030.0 1027.1 0.0
21/09:00pm 9.0 5.0 6.6 85 1.2 E 17 20 9 11 1029.9 1027.0 0.0
21/08:30pm 9.5 5.2 7.1 85 1.2 E 19 24 10 13 1029.6 1026.7 0.0
21/08:00pm 9.8 5.5 7.1 83 1.3 E 19 24 10 13 1029.2 1026.3 0.0
21/07:30pm 10.3 5.8 7.0 80 1.7 E 20 30 11 16 1029.0 1026.1 0.0
21/07:00pm 11.1 6.2 7.0 76 2.1 E 22 30 12 16 1028.9 1026.0 0.0
21/06:30pm 12.3 7.5 7.2 71 2.6 E 22 30 12 16 1028.6 1025.7 0.0
21/06:00pm 13.6 9.3 7.2 65 3.3 ESE 19 26 10 14 1028.4 1025.4 0.0
21/05:30pm 14.6 10.2 7.4 62 3.8 ESE 20 28 11 15 1028.2 1025.3 0.0
21/05:00pm 15.4 11.1 7.7 60 4.0 E 20 28 11 15 1028.2 1025.3 0.0
21/04:30pm 15.9 11.6 7.7 58 4.3 E 20 32 11 17 1028.2 1025.3 0.0
21/04:00pm 16.3 12.1 7.5 56 4.6 E 19 26 10 14 1028.4 1025.4 0.0
21/03:30pm 16.6 12.7 8.8 60 4.2 E 19 26 10 14 1028.5 1025.6 0.0
21/03:00pm 15.8 11.6 7.6 58 4.3 ESE 19 28 10 15 1028.8 1025.9 0.0
21/02:30pm 15.6 11.0 8.1 61 4.0 ESE 22 32 12 17 1029.2 1026.3 0.0
21/02:00pm 15.6 11.0 8.1 61 4.0 ESE 22 30 12 16 1029.6 1026.7 0.0
21/01:30pm 15.7 10.7 8.2 61 4.0 E 24 32 13 17 1029.8 1026.9 0.0
21/01:00pm 14.8 9.8 8.1 64 3.5 E 24 32 13 17 1030.2 1027.4 0.0
21/12:30pm 13.8 8.7 7.6 66 3.2 ENE 24 33 13 18 1030.7 1027.8 0.0
21/12:00pm 13.1 8.7 7.3 68 3.0 E 20 32 11 17 1030.9 1028.0 0.0
21/11:30am 13.0 8.7 7.7 70 2.8 E 20 28 11 15 1031.0 1028.2 0.0
21/11:00am 12.6 7.6 7.9 73 2.4 E 24 33 13 18 1031.0 1028.2 0.0
21/10:33am 12.7 7.6 7.8 72 2.6 E 24 35 13 19 1030.8 1027.9 0.0
21/10:30am 12.8 7.3 7.7 71 2.7 E 26 39 14 21 1030.8 1027.9 0.0
21/10:00am 11.8 6.9 8.3 79 1.8 E 24 33 13 18 1030.7 1027.8 0.0
21/09:30am 11.8 6.2 8.6 81 1.7 E 28 35 15 19 1030.6 1027.7 0.0
21/09:00am 10.9 5.2 8.5 85 1.2 E 28 35 15 19 1030.5 1027.6 0.0
21/08:30am 10.3 5.1 8.7 90 0.8 E 26 39 14 21 1030.1 1027.3 0.0
21/08:00am 10.1 4.9 9.0 93 0.6 E 26 35 14 19 1029.9 1027.0 0.0
21/07:30am 10.1 4.9 9.0 93 0.6 E 26 35 14 19 1029.7 1026.8 0.0
21/07:00am 9.9 5.2 9.3 96 0.3 E 24 33 13 18 1029.4 1026.5 0.0
21/06:30am 9.8 5.2 9.5 98 0.2 E 24 33 13 18 1029.0 1026.1 0.0
21/06:00am 10.0 4.1 8.9 93 0.6 E 30 37 16 20 1028.6 1025.7 0.0
21/05:30am 10.1 4.2 9.0 93 0.6 E 30 39 16 21 1028.5 1025.6 0.0
21/05:00am 10.3 4.9 9.5 95 0.4 E 28 35 15 19 1028.2 1025.3 0.0
21/04:30am 10.4 5.5 9.8 96 0.3 E 26 35 14 19 1028.2 1025.3 0.0
21/04:00am 10.5 5.7 10.2 98 0.2 E 26 35 14 19 1028.2 1025.3 0.0
21/03:30am 10.9 6.0 10.0 94 0.5 E 26 33 14 18 1028.2 1025.3 0.0
21/03:00am 11.0 5.8 10.2 95 0.4 E 28 33 15 18 1028.4 1025.4 0.0
21/02:30am 11.3 6.3 9.7 90 0.9 E 26 33 14 18 1028.7 1025.8 0.0
21/02:00am 11.6 6.9 9.2 85 1.3 E 24 35 13 19 1028.9 1026.0 0.0
21/01:35am 11.6 6.1 9.2 85 1.3 E 28 39 15 21 1029.1 1026.2 0.0
21/01:30am 11.7 6.2 9.1 84 1.4 E 28 39 15 21 1029.2 1026.3 0.0
21/01:00am 11.7 6.3 9.4 86 1.2 E 28 35 15 19 1029.5 1026.6 0.0
21/12:41am 11.7 6.3 9.4 86 1.2 E 28 35 15 19 1029.7 1026.8 0.0
21/12:30am 11.7 7.1 9.6 87 1.1 E 24 35 13 19 1029.7 1026.8 0.0
21/12:00am 11.8 7.6 9.9 88 1.0 E 22 28 12 15 1029.9 1027.0 0.0
 
Date/Time
EDT
Temp
°C
App
Temp
°C
Dew
Point
Rel
Hum
%
Delta-T
°C
Wind Press
QNH
hPa
Press
MSL
hPa
Rain
since 9 am
mm
Dir
 
Spd
km/h
Gust
km/h
Spd
kts
Gust
kts
20/11:30pm 11.9 7.8 10.1 89 1.0 E 22 30 12 16 1030.1 1027.3 0.0
20/11:00pm 11.9 7.3 9.5 85 1.3 E 24 35 13 19 1030.4 1027.5 0.0
20/10:30pm 12.1 7.1 9.5 84 1.4 E 26 35 14 19 1030.4 1027.5 0.0
20/10:00pm 12.3 6.9 9.5 83 1.5 E 28 35 15 19 1030.2 1027.4 0.0
20/09:34pm 12.7 7.4 9.7 82 1.6 E 28 39 15 21 1030.2 1027.4 0.0
20/09:30pm 12.8 7.5 10.0 83 1.5 E 28 39 15 21 1030.1 1027.3 0.0
20/09:00pm 13.2 8.0 10.2 82 1.6 E 28 41 15 22 1029.7 1026.8 0.0
20/08:30pm 13.8 8.6 10.4 80 1.9 E 28 37 15 20 1029.1 1026.2 0.0
20/08:00pm 14.1 10.1 10.3 78 2.1 SE 22 28 12 15 1028.7 1025.8 0.0

Other Formats:

Comma delimited format used in spreadsheet applications
http://www.bom.gov.au/fwo/IDN60801/IDN60801.95773.axf

JavaScript Object Notation format (JSON) in row-major order
http://www.bom.gov.au/fwo/IDN60801/IDN60801.95773.json